Tiempo atmosférico en la estación meteorológica de Vejer De La Frontera, Cádiz (160 m.)



Fecha
DESCASC
Temp. máxima en grados centígrados (hora)
DESCASC
Temp. mínima en grados centígrados (hora)
DESCASC
Temp. media en grados centígrados
DESCASC
Racha de viento máxima en m/sg (hora)
DESCASC
Velocidad máxima media en intervalos de 10 minutos(hora)
DESCASC
Precipitaciones diarias en mm
DESCASC
Precipitaciones de 00:00 a 06:00 en mm
DESCASC
Precipitaciones de 06:00 a 12:00 en mm
DESCASC
Precipitaciones de 12:00 a 18:00 en mm
DESCASC
Precipitaciones de 18:00 a 24:00 en mm
DESCASC
15-07-2018 24.1 (16:40) 16.7 (05:50) 20.4 11.67 (15:00) 6.39 (20:50) 0 0 0 0 0
14-07-2018 24.8 (16:20) 17.1 (07:30) 20.9 10.83 (17:10) 5.28 (17:40) 0 0 0 0 0
13-07-2018 24.9 (18:00) 18 (00:00) 21.4 9.17 (14:30) 5.28 (15:10) 0 0 0 0 0
12-07-2018 24.2 (17:00) 17.4 (00:00) 20.8 14.44 (10:50) 5 (11:00) 0 0 0 0 0
11-07-2018 24.1 (16:00) 17 (00:00) 20.6 10.28 (18:00) 6.11 (13:10) 0 0 0 0 0
10-07-2018 25.5 (17:00) 18.1 (00:00) 21.8 9.17 (09:40) 5.56 (11:50) 0 0 0 0 0
09-07-2018 34.4 (16:00) 20.5 (00:00) 27.5 7.5 (17:00) 4.44 (17:20) 0 0 0 0 0
08-07-2018 33.5 (17:50) 19.5 (07:20) 26.5 9.44 (13:30) 4.44 (18:40) 0 0 0 0 0
07-07-2018 32 (16:40) 18.9 (00:00) 25.4 9.44 (12:30) 4.17 (11:30) 0 0 0 0 0
06-07-2018 29.2 (17:00) 17.6 (00:00) 23.4 7.22 (17:30) 4.17 (18:40) 0 0 0 0 0
05-07-2018 26.7 (15:00) 17.9 (00:40) 22.3 11.11 (17:30) 6.39 (17:30) 0 0 0 0 0
04-07-2018 23.1 (17:30) 16.4 (06:30) 19.8 12.78 (18:50) 6.67 (18:40) 0 0 0 0 0
03-07-2018 26.2 (15:10) 17.6 (07:50) 21.9 9.72 (16:10) 5.83 (16:00) 0 0 0 0 0
02-07-2018 24.7 (16:20) 16.8 (06:40) 20.8 9.17 (15:50) 5.56 (18:40) 0 0 0 0 0
01-07-2018 24 (17:00) 16.9 (00:00) 20.4 10.28 (17:00) 5.83 (16:30) 0 0 0 0 0
30-06-2018 23.9 (18:10) 16.5 (06:50) 20.2 10.28 (15:30) 6.11 (15:40) 0 0 0 0 0
29-06-2018 24.9 (16:50) 16.7 (00:00) 20.8 8.89 (19:30) 5 (19:30) 0 0 0 0 0
28-06-2018 24.7 (17:10) 17 (00:00) 20.9 9.44 (15:30) 5.83 (18:30) 0 0 0 0 0
27-06-2018 24.8 (16:40) 17.1 (00:00) 20.9 10.28 (20:10) 6.39 (20:10) 0 0 0 0 0
26-06-2018 24.1 (17:20) 16.7 (00:00) 20.4 9.44 (20:10) 5.28 (20:10) 0 0 0 0 0
25-06-2018 24.8 (14:10) 17.9 (00:00) 21.3 8.61 (17:10) 5 (17:40) 0 0 0 0 0
24-06-2018 27.8 (15:30) 18.6 (00:00) 23.2 13.06 (15:30) 6.11 (19:10) 0 0 0 0 0
23-06-2018 29.6 (14:50) 18 (00:00) 23.8 11.67 (16:30) 5.28 (16:50) 0 0 0 0 0
22-06-2018 29.7 (15:10) 17.7 (06:30) 23.7 6.67 (01:20) 3.61 (16:50) 0 0 0 0 0
21-06-2018 28.6 (17:00) 17.5 (00:00) 23.1 12.22 (05:00) 5 (05:00) 2.5 2.4 0.1 0 0
20-06-2018 27.6 (16:20) 18.7 (00:00) 23.2 13.33 (08:10) 6.67 (02:20) 0 0 0 0 0
19-06-2018 27.8 (15:30) 19.5 (00:00) 23.6 16.67 (14:50) 7.78 (21:30) 0 0 0 0 0
18-06-2018 29.7 (16:30) 20.2 (00:00) 25 16.11 (12:10) 8.06 (12:10) 0 0 0 0 0
17-06-2018 30.8 (16:50) 17.3 (00:00) 24 12.5 (13:20) 5.83 (12:30) 0 0 0 0 0

Gráficas

Temp. máximas Temp. mínimas Temp. medias Precipitaciones Rachas de viento máximas Velocidades máximas media en intervalos de 10 minutos

Datos horarios

Fecha y hora oficial Temperatura (ºC) Velocidad del viento (km/h) Dirección del viento Racha (km/h) Dirección de racha Precipitación (mm) Presión (hPa) Tendencia (hPa) Humedad (%)
2018-07-16 23:00:00 20.6 7 Noroeste 21 Noroeste 0 -- -- 72
2018-07-16 22:00:00 20.7 14 Oeste 25 Oeste 0 -- -- 69
2018-07-16 21:00:00 22.1 15 Oeste 26 Oeste 0 -- -- 59
2018-07-16 20:00:00 25.5 13 Oeste 27 Oeste 0 -- -- 42
2018-07-16 19:00:00 24.7 18 Oeste 33 Oeste 0 -- -- 45
2018-07-16 18:00:00 24.7 19 Oeste 31 Oeste 0 -- -- 45
2018-07-16 17:00:00 25.5 15 Oeste 30 Oeste 0 -- -- 46
2018-07-16 16:00:00 23.9 14 Oeste 29 Oeste 0 -- -- 46
2018-07-16 15:00:00 23.8 16 Oeste 30 Sudoeste 0 -- -- 47
2018-07-16 14:00:00 23.7 15 Oeste 27 Oeste 0 -- -- 47
2018-07-16 13:00:00 22.7 14 Oeste 26 Oeste 0 -- -- 53
2018-07-16 12:00:00 21.5 10 Oeste 20 Sudoeste 0 -- -- 59
2018-07-16 11:00:00 21.2 10 Oeste 21 Oeste 0 -- -- 65
2018-07-16 10:00:00 19.4 12 Oeste 22 Oeste 0 -- -- 78
2018-07-16 09:00:00 17.9 9 Oeste 13 Noroeste 0 -- -- 83
2018-07-16 08:00:00 17.5 6 Noroeste 15 Noroeste 0 -- -- 82
2018-07-16 07:00:00 17.7 6 Noroeste 12 Norte 0 -- -- 81
2018-07-16 06:00:00 17.8 6 Noroeste 13 Oeste 0 -- -- 89
2018-07-16 05:00:00 17.7 6 Oeste 15 Oeste 0 -- -- 95
2018-07-16 04:00:00 17.5 8 Sudoeste 23 Oeste 0 -- -- 95
2018-07-16 03:00:00 17.9 13 Oeste 24 Sudoeste 0 -- -- 95
2018-07-16 02:00:00 18.2 13 Oeste 25 Oeste 0 -- -- 93
2018-07-16 01:00:00 18.1 9 Sudoeste 19 Oeste 0 -- -- 92
2018-07-16 00:00:00 18.4 10 Oeste 24 Sudoeste 0 -- -- 91
2018-07-15 23:00:00 18.8 10 Oeste 33 Sudoeste 0 -- -- 87
2018-07-15 22:00:00 19 15 Oeste 35 Oeste 0 -- -- 82
2018-07-15 21:00:00 19.9 20 Oeste 38 Oeste 0 -- -- 69
2018-07-15 20:00:00 21.7 21 Oeste 41 Oeste 0 -- -- 59
2018-07-15 19:00:00 22.7 19 Oeste 40 Sudoeste 0 -- -- 57
2018-07-15 18:00:00 22.4 22 Oeste 39 Oeste 0 -- -- 52
2018-07-15 17:00:00 22.9 22 Oeste 40 Oeste 0 -- -- 49
2018-07-15 16:00:00 22.6 21 Oeste 37 Oeste 0 -- -- 52
2018-07-15 15:00:00 22.4 22 Oeste 42 Oeste 0 -- -- 51
2018-07-15 14:00:00 21.8 19 Oeste 33 Oeste 0 -- -- 50
2018-07-15 13:00:00 21.9 17 Oeste 31 Sudoeste 0 -- -- 52
2018-07-15 12:00:00 20.7 13 Oeste 31 Oeste 0 -- -- 59
2018-07-15 11:00:00 20.1 16 Oeste 30 Oeste 0 -- -- 65
2018-07-15 10:00:00 19.4 11 Oeste 25 Oeste 0 -- -- 71
2018-07-15 09:00:00 17.6 8 Oeste 16 Oeste 0 -- -- 87
2018-07-15 08:00:00 17.3 6 Oeste 16 Oeste 0 -- -- 88
2018-07-15 07:00:00 16.9 9 Oeste 19 Oeste 0 -- -- 89
2018-07-15 06:00:00 16.9 10 Oeste 25 Oeste 0 -- -- 89
2018-07-15 05:00:00 16.9 13 Oeste 22 Oeste 0 -- -- 87
2018-07-15 04:00:00 17.3 11 Oeste 20 Oeste 0 -- -- 84
2018-07-15 03:00:00 17.4 12 Oeste 25 Oeste 0 -- -- 83
2018-07-15 02:00:00 17.7 9 Oeste 14 Oeste 0 -- -- 83
2018-07-15 01:00:00 18 7 Oeste 15 Oeste 0 -- -- 81
2018-07-15 00:00:00 18.1 9 Oeste 18 Oeste 0 -- -- 80
2018-07-14 23:00:00 18.3 9 Oeste 19 Oeste 0 -- -- 73
2018-07-14 22:00:00 19 10 Oeste 24 Oeste 0 -- -- 68
2018-07-14 21:00:00 20.6 11 Oeste 26 Oeste 0 -- -- 57
2018-07-14 20:00:00 22.6 11 Oeste 32 Oeste 0 -- -- 49
2018-07-14 19:00:00 23 18 Oeste 37 Oeste 0 -- -- 46
2018-07-14 18:00:00 24.3 15 Oeste 39 Oeste 0 -- -- 45
2018-07-14 17:00:00 24.2 17 Oeste 33 Oeste 0 -- -- 46
2018-07-14 16:00:00 24.1 15 Oeste 33 Oeste 0 -- -- 48
2018-07-14 15:00:00 23.4 14 Oeste 30 Oeste 0 -- -- 49
2018-07-14 14:00:00 23.5 14 Oeste 28 Oeste 0 -- -- 48
2018-07-14 13:00:00 22 13 Oeste 27 Oeste 0 -- -- 57
2018-07-14 12:00:00 20.9 12 Sudoeste 23 Sudoeste 0 -- -- 64
2018-07-14 11:00:00 19.8 12 Sudoeste 19 Sur 0 -- -- 72
2018-07-14 10:00:00 19.1 10 Sudoeste 19 Sudoeste 0 -- -- 82
2018-07-14 09:00:00 18 5 Sudoeste 9 Sudoeste 0 -- -- 94
2018-07-14 08:00:00 17.3 3 Oeste 5 Oeste 0 -- -- 94
2018-07-14 07:00:00 17.7 3 Oeste 4 Oeste 0 -- -- 93
2018-07-14 06:00:00 17.6 0 Calma 6 Oeste 0 -- -- 93
2018-07-14 05:00:00 17.8 4 Oeste 8 Oeste 0 -- -- 93
2018-07-14 04:00:00 17.9 4 Sudoeste 7 Oeste 0 -- -- 93
2018-07-14 03:00:00 17.9 3 Sudoeste 6 Oeste 0 -- -- 93
2018-07-14 02:00:00 18.2 4 Sudoeste 8 Oeste 0 -- -- 91
2018-07-14 01:00:00 18.2 6 Oeste 12 Sudoeste 0 -- -- 91
2018-07-14 00:00:00 18.5 8 Oeste 13 Sudoeste 0 -- -- 91
2018-07-13 23:00:00 18.6 9 Sudoeste 14 Sudoeste 0 -- -- 90
2018-07-13 22:00:00 19.6 6 Sudoeste 13 Sudoeste 0 -- -- 76
2018-07-13 21:00:00 21.3 7 Oeste 18 Sudoeste 0 -- -- 63
2018-07-13 20:00:00 23 10 Sudoeste 21 Sudoeste 0 -- -- 54
2018-07-13 19:00:00 22.8 12 Sudoeste 22 Oeste 0 -- -- 53
2018-07-13 18:00:00 24 12 Oeste 26 Sudoeste 0 -- -- 49
2018-07-13 17:00:00 23.9 14 Sudoeste 25 Oeste 0 -- -- 47
2018-07-13 16:00:00 23.2 16 Sudoeste 31 Sudoeste 0 -- -- 54
2018-07-13 15:00:00 22.5 18 Sudoeste 33 Sudoeste 0 -- -- 56
2018-07-13 14:00:00 21.3 14 Sur 27 Sudoeste 0 -- -- 58
2018-07-13 13:00:00 20.8 13 Sur 29 Sur 0 -- -- 58
2018-07-13 12:00:00 20 12 Sur 20 Sur 0 -- -- 61
2018-07-13 11:00:00 19.8 10 Sudoeste 22 Sudoeste 0 -- -- 60
2018-07-13 10:00:00 19.4 11 Sudoeste 21 Sudoeste 0 -- -- 62
2018-07-13 09:00:00 18.8 10 Sudoeste 20 Sudoeste 0 -- -- 66
2018-07-13 08:00:00 18.7 12 Sudoeste 21 Sudoeste 0 -- -- 68
2018-07-13 07:00:00 18.5 10 Sudoeste 16 Oeste 0 -- -- 73
2018-07-13 06:00:00 18.8 10 Oeste 19 Sudoeste 0 -- -- 76
2018-07-13 05:00:00 18.8 13 Sudoeste 21 Sudoeste 0 -- -- 70
2018-07-13 04:00:00 18.8 10 Sudoeste 23 Sudoeste 0 -- -- 69
2018-07-13 03:00:00 18.8 13 Sudoeste 27 Sur 0 -- -- 70
2018-07-13 02:00:00 18.6 10 Sudoeste 23 Sudoeste 0 -- -- 73
2018-07-13 01:00:00 18.5 10 Sudoeste 19 Sudoeste 0 -- -- 79
2018-07-13 00:00:00 18 9 Sudoeste 19 Sudoeste 0 -- -- 84
2018-07-12 23:00:00 18.2 10 Sudoeste 14 Sudoeste 0 -- -- 85
2018-07-12 22:00:00 19 6 Sur 18 Sudoeste 0 -- -- 77
2018-07-12 21:00:00 19.7 12 Sudoeste 27 Sudoeste 0 -- -- 70
2018-07-12 20:00:00 20.8 15 Sudoeste 33 Sudoeste 0 -- -- 61
2018-07-12 19:00:00 22.3 17 Sudoeste 30 Sudoeste 0 -- -- 56
2018-07-12 18:00:00 22.7 18 Oeste 34 Oeste 0 -- -- 51
2018-07-12 17:00:00 22.9 17 Sudoeste 35 Oeste 0 -- -- 47
2018-07-12 16:00:00 22.7 16 Sudoeste 31 Sudoeste 0 -- -- 54
2018-07-12 15:00:00 23.8 16 Sudoeste 28 Sudoeste 0 -- -- 53
2018-07-12 14:00:00 22.1 14 Sudoeste 27 Sudoeste 0 -- -- 55
2018-07-12 13:00:00 21.7 13 Sudoeste 27 Sudoeste 0 -- -- 57
2018-07-12 12:00:00 20.8 16 Sudoeste 30 Sudoeste 0 -- -- 64
2018-07-12 11:00:00 20.8 18 Sudoeste 52 Sudoeste 0 -- -- 62
2018-07-12 10:00:00 19.7 13 Sudoeste 27 Sudoeste 0 -- -- 68
2018-07-12 09:00:00 19.1 13 Sudoeste 23 Sudoeste 0 -- -- 77
2018-07-12 08:00:00 17.9 10 Sudoeste 18 Sudoeste 0 -- -- 83
2018-07-12 07:00:00 17.9 8 Sudoeste 17 Sudoeste 0 -- -- 82
2018-07-12 06:00:00 18.3 9 Sudoeste 22 Sudoeste 0 -- -- 80
2018-07-12 05:00:00 18.4 8 Sudoeste 21 Sur 0 -- -- 81
2018-07-12 04:00:00 18.3 11 Sudoeste 20 Sudoeste 0 -- -- 83
2018-07-12 03:00:00 18.2 13 Sudoeste 22 Sudoeste 0 -- -- 83
2018-07-12 02:00:00 18.1 10 Sudoeste 20 Sudoeste 0 -- -- 85
2018-07-12 01:00:00 18 10 Sudoeste 22 Sudoeste 0 -- -- 86
2018-07-12 00:00:00 18.3 11 Oeste 23 Oeste 0 -- -- 84
2018-07-11 23:00:00 18.1 12 Oeste 24 Sudoeste 0 -- -- 84
2018-07-11 22:00:00 18.3 11 Oeste 24 Oeste 0 -- -- 83
2018-07-11 21:00:00 19.2 12 Oeste 27 Oeste 0 -- -- 74
2018-07-11 20:00:00 20.8 13 Sudoeste 27 Sudoeste 0 -- -- 64
2018-07-11 19:00:00 21.7 15 Oeste 30 Sudoeste 0 -- -- 58
2018-07-11 18:00:00 22.9 17 Oeste 37 Oeste 0 -- -- 56
2018-07-11 17:00:00 22.3 19 Oeste 36 Oeste 0 -- -- 54
2018-07-11 16:00:00 22.2 15 Oeste 35 Oeste 0 -- -- 53
2018-07-11 15:00:00 22.4 16 Oeste 33 Sudoeste 0 -- -- 56
2018-07-11 14:00:00 21.6 18 Sudoeste 34 Sudoeste 0 -- -- 60
2018-07-11 13:00:00 20.5 20 Sudoeste 35 Sudoeste 0 -- -- 64
2018-07-11 12:00:00 21.6 18 Sudoeste 34 Sudoeste 0 -- -- 64
2018-07-11 11:00:00 19.7 19 Sudoeste 32 Sudoeste 0 -- -- 71
2018-07-11 10:00:00 19.5 15 Sudoeste 31 Sudoeste 0 -- -- 77
2018-07-11 09:00:00 18.7 17 Sudoeste 27 Sudoeste 0 -- -- 85
2018-07-11 08:00:00 18.2 15 Sudoeste 28 Sudoeste 0 -- -- 91
2018-07-11 07:00:00 17.8 12 Sudoeste 22 Sudoeste 0 -- -- 95
2018-07-11 06:00:00 17.6 12 Sudoeste 23 Sudoeste 0 -- -- 95
2018-07-11 05:00:00 17.5 12 Sudoeste 20 Sudoeste 0 -- -- 95
2018-07-11 04:00:00 17.2 4 Sur 6 Sur 0 -- -- 94
2018-07-11 03:00:00 18 5 Sudoeste 21 Oeste 0 -- -- 93
2018-07-11 02:00:00 18.3 11 Oeste 21 Sudoeste 0 -- -- 93
2018-07-11 01:00:00 18.5 9 Oeste 15 Sudoeste 0 -- -- 92
2018-07-11 00:00:00 18.2 5 Sudoeste 14 Oeste 0 -- -- 91
2018-07-10 23:00:00 19.1 9 Oeste 23 Oeste 0 -- -- 91
2018-07-10 22:00:00 19.1 11 Oeste 27 Oeste 0 -- -- 91
2018-07-10 21:00:00 19.8 17 Oeste 26 Oeste 0 -- -- 83
2018-07-10 20:00:00 22.4 10 Oeste 22 Sudoeste 0 -- -- 66
2018-07-10 19:00:00 22.7 14 Oeste 31 Oeste 0 -- -- 60
2018-07-10 18:00:00 23.4 19 Oeste 30 Sudoeste 0 -- -- 59
2018-07-10 17:00:00 25.5 11 Sudoeste 27 Sudoeste 0 -- -- 52
2018-07-10 16:00:00 23.7 14 Sudoeste 28 Sudoeste 0 -- -- 58
2018-07-10 15:00:00 22 14 Sudoeste 28 Sudoeste 0 -- -- 64
2018-07-10 14:00:00 21.6 17 Sudoeste 32 Sudoeste 0 -- -- 68
2018-07-10 13:00:00 21.6 16 Sudoeste 30 Sudoeste 0 -- -- 68
2018-07-10 12:00:00 21.8 17 Sudoeste 32 Sudoeste 0 -- -- 68
2018-07-10 11:00:00 20.5 19 Sudoeste 30 Sudoeste 0 -- -- 74
2018-07-10 10:00:00 20.7 19 Sudoeste 33 Sudoeste 0 -- -- 80
2018-07-10 09:00:00 19.7 15 Sudoeste 28 Sudoeste 0 -- -- 90
2018-07-10 08:00:00 19 15 Sudoeste 30 Sudoeste 0 -- -- 95
2018-07-10 07:00:00 18.8 13 Sudoeste 25 Sudoeste 0 -- -- 95
2018-07-10 06:00:00 19 9 Sur 16 Sudoeste 0 -- -- 95
2018-07-10 05:00:00 19.5 8 Sudoeste 13 Sudoeste 0 -- -- 91
2018-07-10 04:00:00 21.4 4 Sudoeste 13 Oeste 0 -- -- 53
2018-07-10 03:00:00 23.3 10 Oeste 17 Oeste 0 -- -- 46
2018-07-10 02:00:00 23.9 7 Noroeste 15 Noroeste 0 -- -- 48
2018-07-10 01:00:00 23.6 7 Noroeste 17 Oeste 0 -- -- 50
2018-07-10 00:00:00 23.4 12 Oeste 18 Oeste 0 -- -- 51
2018-07-09 23:00:00 24.7 9 Noroeste 21 Oeste 0 -- -- 49
2018-07-09 22:00:00 25.1 10 Oeste 18 Oeste 0 -- -- 51
2018-07-09 21:00:00 27.5 9 Oeste 15 Oeste 0 -- -- 46
2018-07-09 20:00:00 29 6 Oeste 15 Oeste 0 -- -- 44
2018-07-09 19:00:00 29.3 9 Oeste 25 Oeste 0 -- -- 45
2018-07-09 18:00:00 29.3 13 Oeste 27 Oeste 0 -- -- 45
2018-07-09 17:00:00 30.7 15 Oeste 27 Oeste 0 -- -- 37
2018-07-09 16:00:00 33.7 6 Este 16 Este 0 -- -- 27
2018-07-09 15:00:00 32.6 5 Este 20 Este 0 -- -- 31
2018-07-09 14:00:00 31.9 6 Este 18 Sudeste 0 -- -- 36
2018-07-09 13:00:00 30.9 5 Este 15 Este 0 -- -- 37
2018-07-09 12:00:00 28.8 5 Este 15 Este 0 -- -- 39
2018-07-09 11:00:00 27.3 4 Este 17 Este 0 -- -- 47
2018-07-09 10:00:00 24.7 6 Este 18 Este 0 -- -- 61
2018-07-09 09:00:00 22 9 Este 19 Este 0 -- -- 76
2018-07-09 08:00:00 21.1 7 Este 14 Este 0 -- -- 81
2018-07-09 07:00:00 20.6 6 Nordeste 13 Nordeste 0 -- -- 83
2018-07-09 06:00:00 20.7 5 Este 13 Este 0 -- -- 83
2018-07-09 05:00:00 20.8 5 Este 16 Este 0 -- -- 83
2018-07-09 04:00:00 21.3 8 Este 16 Este 0 -- -- 79
2018-07-09 03:00:00 21.5 7 Este 19 Este 0 -- -- 76
2018-07-09 02:00:00 22 5 Este 15 Este 0 -- -- 71
2018-07-09 01:00:00 22.3 5 Este 14 Sudeste 0 -- -- 68
2018-07-09 00:00:00 22.9 4 Nordeste 10 Nordeste 0 -- -- 64
2018-07-08 23:00:00 24.4 4 Nordeste 14 Norte 0 -- -- 54
2018-07-08 22:00:00 25.7 5 Noroeste 12 Oeste 0 -- -- 57
2018-07-08 21:00:00 26.3 6 Oeste 19 Oeste 0 -- -- 52
2018-07-08 20:00:00 28.2 10 Oeste 21 Oeste 0 -- -- 45
2018-07-08 19:00:00 28.7 11 Oeste 27 Oeste 0 -- -- 45
2018-07-08 18:00:00 32.2 2 Norte 21 Este 0 -- -- 26
2018-07-08 17:00:00 32.4 10 Nordeste 24 Nordeste 0 -- -- 23
2018-07-08 16:00:00 32.7 10 Este 27 Este 0 -- -- 26
2018-07-08 15:00:00 31.1 11 Este 31 Este 0 -- -- 29
2018-07-08 14:00:00 29.8 15 Este 34 Nordeste 0 -- -- 33
2018-07-08 13:00:00 29.7 12 Este 33 Este 0 -- -- 38
2018-07-08 12:00:00 27.8 12 Este 30 Sudeste 0 -- -- 45
2018-07-08 11:00:00 26.3 11 Este 31 Este 0 -- -- 52
2018-07-08 10:00:00 23.8 14 Este 30 Este 0 -- -- 68
2018-07-08 09:00:00 21.7 8 Este 20 Este 0 -- -- 83
2018-07-08 08:00:00 20.2 8 Este 21 Nordeste 0 -- -- 91
2018-07-08 07:00:00 19.7 7 Este 21 Este 0 -- -- 92
2018-07-08 06:00:00 20 6 Nordeste 14 Este 0 -- -- 90
2018-07-08 05:00:00 20.2 8 Este 26 Este 0 -- -- 89
2018-07-08 04:00:00 20.2 13 Este 24 Este 0 -- -- 89
2018-07-08 03:00:00 20.4 7 Este 20 Este 0 -- -- 86
2018-07-08 02:00:00 20.7 8 Nordeste 22 Este 0 -- -- 85
2018-07-08 01:00:00 21.3 8 Este 22 Este 0 -- -- 80
2018-07-08 00:00:00 21.7 8 Este 20 Este 0 -- -- 77
2018-07-07 23:00:00 22.8 8 Este 20 Este 0 -- -- 67
2018-07-07 22:00:00 24.1 5 Este 15 Este 0 -- -- 48
2018-07-07 21:00:00 27 0 Calma 18 Oeste 0 -- -- 34
2018-07-07 20:00:00 28.6 10 Oeste 19 Oeste 0 -- -- 31
2018-07-07 19:00:00 30.4 8 Este 24 Este 0 -- -- 25
2018-07-07 18:00:00 31.2 10 Este 28 Este 0 -- -- 24
2018-07-07 17:00:00 31.6 12 Este 30 Este 0 -- -- 22
2018-07-07 16:00:00 31.1 14 Este 33 Este 0 -- -- 23
2018-07-07 15:00:00 31.5 10 Este 30 Este 0 -- -- 24
2018-07-07 14:00:00 29.7 12 Este 31 Este 0 -- -- 26
2018-07-07 13:00:00 28.8 12 Este 34 Este 0 -- -- 28
2018-07-07 12:00:00 27.4 13 Este 33 Este 0 -- -- 29
2018-07-07 11:00:00 26.1 14 Este 33 Este 0 -- -- 34
2018-07-07 10:00:00 23.3 9 Este 18 Este 0 -- -- 51
2018-07-07 09:00:00 20.6 8 Nordeste 19 Nordeste 0 -- -- 67
2018-07-07 08:00:00 19.8 10 Nordeste 19 Nordeste 0 -- -- 65
2018-07-07 07:00:00 19.6 8 Este 16 Nordeste 0 -- -- 67
2018-07-07 06:00:00 19.3 7 Nordeste 17 Este 0 -- -- 70
2018-07-07 05:00:00 19.1 7 Nordeste 18 Nordeste 0 -- -- 73
2018-07-07 04:00:00 19.4 8 Nordeste 22 Este 0 -- -- 68
2018-07-07 03:00:00 19.6 9 Este 14 Este 0 -- -- 63
2018-07-07 02:00:00 20.7 5 Nordeste 10 Nordeste 0 -- -- 58
2018-07-07 01:00:00 22.1 4 Nordeste 9 Nordeste 0 -- -- 49
2018-07-07 00:00:00 21.6 3 Noroeste 10 Noroeste 0 -- -- 55
2018-07-06 23:00:00 23.1 6 Noroeste 11 Noroeste 0 -- -- 46
2018-07-06 22:00:00 23.3 0 Calma 12 Oeste 0 -- -- 46
2018-07-06 21:00:00 26.2 9 Oeste 20 Oeste 0 -- -- 38
2018-07-06 20:00:00 28.2 11 Oeste 25 Oeste 0 -- -- 36
2018-07-06 19:00:00 28.3 13 Oeste 24 Oeste 0 -- -- 37
2018-07-06 18:00:00 28.7 15 Oeste 26 Oeste 0 -- -- 37
2018-07-06 17:00:00 28.9 14 Oeste 24 Oeste 0 -- -- 38
2018-07-06 16:00:00 28.8 13 Oeste 24 Oeste 0 -- -- 41
2018-07-06 15:00:00 28.6 14 Oeste 23 Oeste 0 -- -- 41
2018-07-06 14:00:00 27.4 8 Oeste 18 Oeste 0 -- -- 44
2018-07-06 13:00:00 27 5 Oeste 14 Sur 0 -- -- 48
2018-07-06 12:00:00 25.3 3 Nordeste 10 Nordeste 0 -- -- 51
2018-07-06 11:00:00 23.1 4 Este 15 Este 0 -- -- 64
2018-07-06 10:00:00 21.1 3 Este 9 Sudeste 0 -- -- 78
2018-07-06 09:00:00 18.8 0 Calma 5 Sudoeste 0 -- -- 91
2018-07-06 08:00:00 18 2 Sudoeste 5 Sudoeste 0 -- -- 95
2018-07-06 07:00:00 17.8 3 Sudoeste 8 Sudoeste 0 -- -- 95
2018-07-06 06:00:00 17.7 4 Oeste 9 Oeste 0 -- -- 92
2018-07-06 05:00:00 17.8 5 Sur 9 Sur 0 -- -- 91
2018-07-06 04:00:00 18 4 Sudoeste 7 Noroeste 0 -- -- 86
2018-07-06 03:00:00 18.8 2 Noroeste 6 Noroeste 0 -- -- 80
2018-07-06 02:00:00 19.7 3 Noroeste 15 Oeste 0 -- -- 74
2018-07-06 01:00:00 19.3 5 Oeste 17 Oeste 0 -- -- 76
2018-07-06 00:00:00 19.5 11 Oeste 30 Oeste 0 -- -- 69
2018-07-05 23:00:00 19.7 19 Oeste 32 Noroeste 0 -- -- 64
2018-07-05 22:00:00 19.5 18 Oeste 29 Oeste 0 -- -- 69
2018-07-05 21:00:00 22.1 18 Oeste 31 Oeste 0 -- -- 46
2018-07-05 20:00:00 24.3 19 Oeste 34 Oeste 0 -- -- 38
2018-07-05 19:00:00 25 20 Oeste 33 Oeste 0 -- -- 36
2018-07-05 18:00:00 25.7 19 Oeste 40 Oeste 0 -- -- 37
2018-07-05 17:00:00 25.4 21 Oeste 36 Oeste 0 -- -- 39
2018-07-05 16:00:00 25.6 22 Oeste 36 Oeste 0 -- -- 41
2018-07-05 15:00:00 26.1 17 Oeste 31 Sudoeste 0 -- -- 38
2018-07-05 14:00:00 25.7 17 Oeste 25 Oeste 0 -- -- 43
2018-07-05 13:00:00 26.4 9 Sudoeste 18 Oeste 0 -- -- 44
2018-07-05 12:00:00 24.6 6 Oeste 16 Oeste 0 -- -- 48
2018-07-05 11:00:00 23.1 4 Oeste 11 Oeste 0 -- -- 51
2018-07-05 10:00:00 20.7 4 Oeste 9 Sudeste 0 -- -- 65
2018-07-05 09:00:00 18.2 5 Este 12 Norte 0 -- -- 82
2018-07-05 08:00:00 18.1 6 Noroeste 14 Norte 0 -- -- 73
2018-07-05 07:00:00 17.9 7 Noroeste 13 Noroeste 0 -- -- 78
2018-07-05 06:00:00 18.4 6 Noroeste 12 Noroeste 0 -- -- 78
2018-07-05 05:00:00 18.4 5 Noroeste 9 Oeste 0 -- -- 85
2018-07-05 04:00:00 17.9 5 Oeste 10 Oeste 0 -- -- 91
2018-07-05 03:00:00 18.1 5 Oeste 18 Sudoeste 0 -- -- 91
2018-07-05 02:00:00 18.1 12 Oeste 20 Oeste 0 -- -- 91
2018-07-05 01:00:00 18 8 Oeste 16 Oeste 0 -- -- 91
2018-07-05 00:00:00 18.4 8 Oeste 22 Oeste 0 -- -- 88
2018-07-04 23:00:00 18.4 13 Oeste 27 Oeste 0 -- -- 84
2018-07-04 22:00:00 18.4 17 Oeste 34 Oeste 0 -- -- 83
2018-07-04 21:00:00 20.2 17 Oeste 39 Oeste 0 -- -- 72
2018-07-04 20:00:00 21.3 20 Oeste 44 Sudoeste 0 -- -- 64
2018-07-04 19:00:00 21.3 22 Oeste 46 Oeste 0 -- -- 60
2018-07-04 18:00:00 22 23 Oeste 45 Oeste 0 -- -- 57
2018-07-04 17:00:00 22.4 22 Oeste 39 Sudoeste 0 -- -- 56
2018-07-04 16:00:00 22.1 21 Oeste 39 Oeste 0 -- -- 54
2018-07-04 15:00:00 22.3 19 Oeste 42 Sudoeste 0 -- -- 55
2018-07-04 14:00:00 21.9 23 Oeste 40 Sudoeste 0 -- -- 53
2018-07-04 13:00:00 21.9 19 Oeste 38 Sudoeste 0 -- -- 49
2018-07-04 12:00:00 21.4 16 Oeste 33 Oeste 0 -- -- 56
2018-07-04 11:00:00 20.1 13 Oeste 29 Oeste 0 -- -- 65
2018-07-04 10:00:00 19.2 10 Oeste 24 Oeste 0 -- -- 73
2018-07-04 09:00:00 18.3 11 Oeste 24 Oeste 0 -- -- 83
2018-07-04 08:00:00 16.9 10 Oeste 24 Oeste 0 -- -- 88
2018-07-04 07:00:00 16.7 12 Oeste 18 Oeste 0 -- -- 85
2018-07-04 06:00:00 16.7 9 Oeste 21 Noroeste 0 -- -- 83
2018-07-04 05:00:00 17.4 13 Oeste 22 Oeste 0 -- -- 82
2018-07-04 04:00:00 17.4 10 Oeste 21 Oeste 0 -- -- 95
2018-07-04 03:00:00 17.9 12 Oeste 23 Oeste 0 -- -- 91
2018-07-04 02:00:00 17.9 13 Oeste 23 Oeste 0 -- -- 90
2018-07-04 01:00:00 17.8 13 Oeste 21 Oeste 0 -- -- 90
2018-07-04 00:00:00 18.3 13 Oeste 22 Sudoeste 0 -- -- 89
2018-07-03 23:00:00 18.6 17 Oeste 28 Oeste 0 -- -- 83
2018-07-03 22:00:00 19.2 20 Oeste 31 Oeste 0 -- -- 76
2018-07-03 21:00:00 21.5 19 Oeste 35 Oeste 0 -- -- 58
2018-07-03 20:00:00 23 21 Oeste 33 Oeste 0 -- -- 53
2018-07-03 19:00:00 24.9 17 Oeste 30 Oeste 0 -- -- 50
2018-07-03 18:00:00 24.4 19 Oeste 34 Oeste 0 -- -- 49
2018-07-03 17:00:00 25.7 18 Oeste 35 Oeste 0 -- -- 47
2018-07-03 16:00:00 24.1 21 Oeste 32 Oeste 0 -- -- 51
2018-07-03 15:00:00 25.6 17 Oeste 30 Sudoeste 0 -- -- 48
2018-07-03 14:00:00 24.7 17 Oeste 30 Oeste 0 -- -- 46
2018-07-03 13:00:00 24.7 13 Oeste 22 Sudoeste 0 -- -- 45
2018-07-03 12:00:00 23.9 4 Oeste 15 Sur 0 -- -- 50
2018-07-03 11:00:00 22.7 2 Sudoeste 12 Sudeste 0 -- -- 65
2018-07-03 10:00:00 20.4 5 Este 12 Este 0 -- -- 81
2018-07-03 09:00:00 18.8 0 Calma 8 Oeste 0 -- -- 91
2018-07-03 08:00:00 17.9 4 Oeste 9 Noroeste 0 -- -- 92
2018-07-03 07:00:00 18.2 3 Noroeste 11 Oeste 0 -- -- 91
2018-07-03 06:00:00 17.9 8 Oeste 13 Oeste 0 -- -- 91
2018-07-03 05:00:00 18.4 6 Oeste 10 Oeste 0 -- -- 89
2018-07-03 04:00:00 18.3 4 Oeste 16 Oeste 0 -- -- 91
2018-07-03 03:00:00 18.1 10 Oeste 21 Oeste 0 -- -- 93
2018-07-03 02:00:00 18.2 12 Oeste 21 Oeste 0 -- -- 93
2018-07-03 01:00:00 18.3 13 Oeste 22 Oeste 0 -- -- 92
2018-07-03 00:00:00 18.3 14 Oeste 26 Oeste 0 -- -- 92
2018-07-02 23:00:00 18.7 14 Oeste 26 Oeste 0 -- -- 86
2018-07-02 22:00:00 19.3 14 Oeste 24 Oeste 0 -- -- 68
2018-07-02 21:00:00 21.1 17 Oeste 30 Oeste 0 -- -- 53
2018-07-02 20:00:00 22.7 18 Oeste 32 Oeste 0 -- -- 52
2018-07-02 19:00:00 22.9 16 Oeste 31 Oeste 0 -- -- 51
2018-07-02 18:00:00 23.7 14 Oeste 32 Sudoeste 0 -- -- 48
2018-07-02 17:00:00 24 14 Oeste 31 Oeste 0 -- -- 47
2018-07-02 16:00:00 23.7 16 Oeste 33 Oeste 0 -- -- 46
2018-07-02 15:00:00 23.3 14 Oeste 30 Sudoeste 0 -- -- 50
2018-07-02 14:00:00 22.1 14 Oeste 28 Oeste 0 -- -- 56
2018-07-02 13:00:00 21.7 11 Oeste 28 Sudoeste 0 -- -- 60
2018-07-02 12:00:00 18.8 8 Oeste 20 Sudoeste 0 -- -- 87
2018-07-02 11:00:00 -- 8 Sudoeste 17 Oeste 0 -- -- --
2018-07-02 10:00:00 19.1 6 Oeste 12 Oeste 0 -- -- 77
2018-07-02 09:00:00 18 0 Calma 10 Oeste 0 -- -- 89
2018-07-02 08:00:00 17.1 5 Oeste 13 Noroeste 0 -- -- 91
2018-07-02 07:00:00 17 6 Oeste 16 Noroeste 0 -- -- 91
2018-07-02 06:00:00 17 8 Oeste 16 Oeste 0 -- -- 91
2018-07-02 05:00:00 17 8 Oeste 15 Oeste 0 -- -- 94
2018-07-02 04:00:00 17.3 9 Oeste 15 Oeste 0 -- -- 94
2018-07-02 03:00:00 17.4 8 Oeste 17 Oeste 0 -- -- 94
2018-07-02 02:00:00 17.8 10 Oeste 21 Oeste 0 -- -- 93
2018-07-02 01:00:00 18 12 Oeste 23 Oeste 0 -- -- 92
2018-07-02 00:00:00 18.5 11 Oeste 19 Sudoeste 0 -- -- 89
2018-07-01 23:00:00 18.6 12 Oeste 22 Sudoeste 0 -- -- 87
2018-07-01 22:00:00 19.1 10 Oeste 23 Sudoeste 0 -- -- 80
2018-07-01 21:00:00 20.7 13 Oeste 28 Oeste 0 -- -- 65
2018-07-01 20:00:00 22 15 Oeste 32 Oeste 0 -- -- 55
2018-07-01 19:00:00 22.6 16 Oeste 37 Oeste 0 -- -- 54
2018-07-01 18:00:00 22.1 18 Oeste 36 Oeste 0 -- -- 54
2018-07-01 17:00:00 23.4 20 Oeste 37 Sudoeste 0 -- -- 49
2018-07-01 16:00:00 23.3 20 Sudoeste 37 Oeste 0 -- -- 49
2018-07-01 15:00:00 23.1 17 Sudoeste 32 Sudoeste 0 -- -- 53
2018-07-01 14:00:00 22.5 17 Sudoeste 30 Sudoeste 0 -- -- 51
2018-07-01 13:00:00 22.6 16 Sudoeste 28 Sudoeste 0 -- -- 48
2018-07-01 12:00:00 21.8 11 Oeste 24 Sudoeste 0 -- -- 52
2018-07-01 11:00:00 20.9 11 Oeste 22 Sudoeste 0 -- -- 60
2018-07-01 10:00:00 20.1 11 Oeste 21 Oeste 0 -- -- 68
2018-07-01 09:00:00 18 8 Oeste 15 Oeste 0 -- -- 89
2018-07-01 08:00:00 17.1 8 Oeste 15 Oeste 0 -- -- 92
2018-07-01 07:00:00 17 9 Oeste 15 Oeste 0 -- -- 92
2018-07-01 06:00:00 17.3 9 Oeste 16 Oeste 0 -- -- 91
2018-07-01 05:00:00 17.7 10 Oeste 20 Oeste 0 -- -- 87
2018-07-01 04:00:00 17.9 11 Oeste 18 Oeste 0 -- -- 87
2018-07-01 03:00:00 17.9 12 Oeste 19 Oeste 0 -- -- 90
2018-07-01 02:00:00 18.3 9 Oeste 23 Sudoeste 0 -- -- 95
2018-07-01 01:00:00 18.8 12 Sudoeste 20 Sudoeste 0 -- -- 95
2018-07-01 00:00:00 18.5 10 Sudoeste 16 Sudoeste 0 -- -- 95
2018-06-30 23:00:00 18.9 9 Sudoeste 16 Sudoeste 0 -- -- 95
2018-06-30 22:00:00 19.5 8 Sudoeste 13 Sudoeste 0 -- -- 86
2018-06-30 21:00:00 21.4 9 Sudoeste 18 Sudoeste 0 -- -- 68
2018-06-30 20:00:00 21.7 12 Sudoeste 26 Oeste 0 -- -- 64
2018-06-30 19:00:00 22.9 13 Sudoeste 29 Oeste 0 -- -- 61
2018-06-30 18:00:00 23.7 17 Sudoeste 30 Sudoeste 0 -- -- 60
2018-06-30 17:00:00 22.2 18 Sudoeste 36 Oeste 0 -- -- 65
2018-06-30 16:00:00 22.8 21 Sudoeste 37 Sudoeste 0 -- -- 62
2018-06-30 15:00:00 22.3 21 Sudoeste 36 Sudoeste 0 -- -- 64
2018-06-30 14:00:00 21.5 18 Sudoeste 33 Sudoeste 0 -- -- 64
2018-06-30 13:00:00 21.3 17 Sudoeste 31 Sudoeste 0 -- -- 63
2018-06-30 12:00:00 21 13 Sur 27 Sur 0 -- -- 70
2018-06-30 11:00:00 19.3 12 Sur 21 Sudoeste 0 -- -- 82
2018-06-30 10:00:00 19.2 6 Sur 17 Sudeste 0 -- -- 87
2018-06-30 09:00:00 17.9 8 Sur 16 Sur 0 -- -- 95
2018-06-30 08:00:00 16.9 5 Sudeste 9 Sudeste 0 -- -- 95
2018-06-30 07:00:00 16.6 3 Sudoeste 6 Sudoeste 0 -- -- 95
2018-06-30 06:00:00 16.8 0 Calma 4 Oeste 0 -- -- 94
2018-06-30 05:00:00 17 2 Oeste 6 Oeste 0 -- -- 92
2018-06-30 04:00:00 17.1 0 Calma 5 Oeste 0 -- -- 91
2018-06-30 03:00:00 17.2 0 Calma 12 Oeste 0 -- -- 89
2018-06-30 02:00:00 17.8 8 Oeste 14 Oeste 0 -- -- 88
2018-06-30 01:00:00 17.9 8 Oeste 15 Oeste 0 -- -- 87
2018-06-30 00:00:00 18.2 9 Oeste 18 Oeste 0 -- -- 84
2018-06-29 23:00:00 18.4 10 Oeste 21 Oeste 0 -- -- 82
2018-06-29 22:00:00 18.8 13 Oeste 25 Oeste 0 -- -- 77
2018-06-29 21:00:00 20.6 15 Oeste 29 Oeste 0 -- -- 63
2018-06-29 20:00:00 22 15 Oeste 32 Oeste 0 -- -- 57
2018-06-29 19:00:00 22.5 15 Oeste 26 Oeste 0 -- -- 52
2018-06-29 18:00:00 24.1 13 Oeste 26 Oeste 0 -- -- 45
2018-06-29 17:00:00 24.3 15 Oeste 26 Oeste 0 -- -- 45
2018-06-29 16:00:00 23.6 14 Oeste 27 Oeste 0 -- -- 45
2018-06-29 15:00:00 23.8 12 Oeste 26 Oeste 0 -- -- 48
2018-06-29 14:00:00 23.3 12 Sudoeste 28 Sudoeste 0 -- -- 49
2018-06-29 13:00:00 21.9 14 Sudoeste 27 Sudoeste 0 -- -- 56
2018-06-29 12:00:00 20.1 13 Sudoeste 27 Sudoeste 0 -- -- 63
2018-06-29 11:00:00 19.2 15 Sudoeste 26 Sudoeste 0 -- -- 71
2018-06-29 10:00:00 18.9 16 Sudoeste 27 Sudoeste 0 -- -- 80
2018-06-29 09:00:00 17.9 12 Sudoeste 23 Sudoeste 0 -- -- 90
2018-06-29 08:00:00 17 14 Sudoeste 25 Sudoeste 0 -- -- 94
2018-06-29 07:00:00 16.7 12 Sudoeste 21 Sudoeste 0 -- -- 94
2018-06-29 06:00:00 17 12 Sudoeste 21 Sudoeste 0 -- -- 94
2018-06-29 05:00:00 17 13 Sudoeste 26 Sudoeste 0 -- -- 94
2018-06-29 04:00:00 17.1 16 Sudoeste 26 Sudoeste 0 -- -- 94
2018-06-29 03:00:00 17.3 14 Sudoeste 22 Oeste 0 -- -- 94
2018-06-29 02:00:00 17.4 14 Sudoeste 23 Sudoeste 0 -- -- 93
2018-06-29 01:00:00 17.5 14 Oeste 23 Oeste 0 -- -- 93
2018-06-29 00:00:00 17.7 10 Sudoeste 22 Oeste 0 -- -- 93
2018-06-28 23:00:00 18.5 13 Oeste 21 Oeste 0 -- -- 87
2018-06-28 22:00:00 18.8 10 Oeste 27 Oeste 0 -- -- 79
2018-06-28 21:00:00 20.5 14 Oeste 30 Oeste 0 -- -- 65
2018-06-28 20:00:00 21.4 17 Oeste 32 Oeste 0 -- -- 66
2018-06-28 19:00:00 21.5 19 Oeste 32 Oeste 0 -- -- 60
2018-06-28 18:00:00 23.7 16 Oeste 27 Oeste 0 -- -- 45
2018-06-28 17:00:00 24.4 16 Oeste 28 Sudoeste 0 -- -- 44
2018-06-28 16:00:00 23.1 18 Oeste 34 Sudoeste 0 -- -- 54
2018-06-28 15:00:00 22.5 15 Sudoeste 28 Oeste 0 -- -- 61
2018-06-28 14:00:00 20.9 16 Sudoeste 31 Sudoeste 0 -- -- 71
2018-06-28 13:00:00 21.2 16 Sudoeste 28 Sudoeste 0 -- -- 71
2018-06-28 12:00:00 20.7 16 Sudoeste 27 Sudoeste 0 -- -- 73
2018-06-28 11:00:00 19.1 15 Sudoeste 26 Sudoeste 0 -- -- 88
2018-06-28 10:00:00 18.7 16 Sudoeste 26 Sudoeste 0 -- -- 93
2018-06-28 09:00:00 18.3 16 Sudoeste 28 Sudoeste 0 -- -- 95
2018-06-28 08:00:00 18.1 14 Sudoeste 24 Sudoeste 0 -- -- 95
2018-06-28 07:00:00 18 13 Sudoeste 20 Sudoeste 0 -- -- 95
2018-06-28 06:00:00 18 10 Sur 19 Sudoeste 0 -- -- 95
2018-06-28 05:00:00 17.9 12 Sudoeste 23 Sudoeste 0 -- -- 95
2018-06-28 04:00:00 17.7 10 Sudoeste 22 Sudoeste 0 -- -- 95
2018-06-28 03:00:00 17.5 12 Sudoeste 19 Sudoeste 0 -- -- 95
2018-06-28 02:00:00 17.3 5 Sudoeste 9 Sudoeste 0 -- -- 95
2018-06-28 01:00:00 17.7 6 Sudoeste 17 Oeste 0 -- -- 95
2018-06-28 00:00:00 18.1 6 Oeste 19 Oeste 0 -- -- 90
2018-06-27 23:00:00 18.3 12 Oeste 24 Oeste 0 -- -- 88
2018-06-27 22:00:00 18.7 17 Oeste 31 Oeste 0 -- -- 89
2018-06-27 21:00:00 20.4 20 Oeste 37 Oeste 0 -- -- 73
2018-06-27 20:00:00 22.8 18 Oeste 34 Oeste 0 -- -- 53
2018-06-27 19:00:00 23.6 19 Oeste 32 Oeste 0 -- -- 50
2018-06-27 18:00:00 24 20 Oeste 31 Oeste 0 -- -- 47
2018-06-27 17:00:00 23.6 18 Oeste 29 Oeste 0 -- -- 47
2018-06-27 16:00:00 24.1 15 Oeste 30 Sudoeste 0 -- -- 53
2018-06-27 15:00:00 23.2 15 Oeste 27 Sudoeste 0 -- -- 54
2018-06-27 14:00:00 22.4 14 Sudoeste 27 Sudoeste 0 -- -- 60
2018-06-27 13:00:00 21.3 16 Sudoeste 25 Sur 0 -- -- 65
2018-06-27 12:00:00 20.3 15 Sudoeste -- -- -- -- -- 74
2018-06-27 11:00:00 19.5 14 Sudoeste 22 Sudoeste 0 -- -- 78
2018-06-27 10:00:00 19.3 10 Sudoeste 23 Sudoeste 0 -- -- 87
2018-06-27 09:00:00 18.4 8 Sur 17 Sudoeste 0 -- -- 95
2018-06-27 08:00:00 17.9 10 Sudoeste 18 Sudoeste 0 -- -- 95
2018-06-27 07:00:00 17.9 8 Sudoeste 15 Sudoeste 0 -- -- 95
2018-06-27 06:00:00 17.7 10 Sudoeste 19 Sudoeste 0 -- -- 96
2018-06-27 05:00:00 17.6 8 Sudoeste 19 Sudoeste 0 -- -- 96
2018-06-27 04:00:00 17.5 10 Sudoeste 18 Sudoeste 0 -- -- 96
2018-06-27 03:00:00 17.3 8 Sudoeste 14 Sudoeste 0 -- -- 96
2018-06-27 02:00:00 17.3 7 Sudoeste 12 Sudoeste 0 -- -- 95
2018-06-27 01:00:00 17.6 7 Sudoeste 12 Sudoeste 0 -- -- 93
2018-06-27 00:00:00 18.1 5 Oeste 10 Oeste 0 -- -- 93
2018-06-26 23:00:00 18.8 6 Oeste 22 Oeste 0 -- -- 90
2018-06-26 22:00:00 19.3 15 Oeste 29 Oeste 0 -- -- 83
2018-06-26 21:00:00 20.9 17 Oeste 34 Oeste 0 -- -- 71
2018-06-26 20:00:00 22.3 17 Oeste 30 Oeste 0 -- -- 62
2018-06-26 19:00:00 23.1 18 Oeste 31 Oeste 0 -- -- 62
2018-06-26 18:00:00 23.7 15 Oeste 30 Sudoeste 0 -- -- 59
2018-06-26 17:00:00 23.1 13 Sudoeste 28 Sudoeste 0 -- -- 60
2018-06-26 16:00:00 22.4 15 Sudoeste 28 Sudoeste 0 -- -- 61
2018-06-26 15:00:00 22.5 11 Sudoeste 24 Sudoeste 0 -- -- 60
2018-06-26 14:00:00 22 10 Sudoeste 23 Sudoeste 0 -- -- 60
2018-06-26 13:00:00 21.8 9 Sudoeste 20 Sudoeste 0 -- -- 56
2018-06-26 12:00:00 21 10 Sudoeste 21 Sudoeste 0 -- -- 61
2018-06-26 11:00:00 20.4 9 Sur 19 Sur 0 -- -- 68
2018-06-26 10:00:00 18.8 11 Sudoeste 21 Sudoeste 0 -- -- 79
2018-06-26 09:00:00 18 10 Sudoeste 14 Sudoeste 0 -- -- 89
2018-06-26 08:00:00 17.2 3 Sudoeste 9 Sudoeste 0 -- -- 94
2018-06-26 07:00:00 17 7 Sudoeste 12 Sudoeste 0 -- -- 93
2018-06-26 06:00:00 16.8 7 Sudoeste 12 Sudoeste 0 -- -- 92
2018-06-26 05:00:00 17 9 Sudoeste 18 Sudoeste 0 -- -- 91
2018-06-26 04:00:00 17.3 9 Sudoeste 16 Sudoeste 0 -- -- 91
2018-06-26 03:00:00 17.8 7 Sudoeste 12 Sudoeste 0 -- -- 88
2018-06-26 02:00:00 17.6 8 Sudoeste 12 Sudoeste 0 -- -- 90
2018-06-26 01:00:00 17.8 5 Sudoeste 10 Oeste 0 -- -- 92
2018-06-26 00:00:00 18.2 7 Sudoeste 15 Sudoeste 0 -- -- 92
2018-06-25 23:00:00 18.5 10 Sudoeste 17 Sudoeste 0 -- -- 92
2018-06-25 22:00:00 19 10 Oeste 19 Sudoeste 0 -- -- 86
2018-06-25 21:00:00 19.7 12 Oeste 23 Oeste 0 -- -- 80
2018-06-25 20:00:00 21.5 13 Oeste 24 Sudoeste 0 -- -- 67
2018-06-25 19:00:00 21.8 12 Oeste 24 Sudoeste 0 -- -- 64
2018-06-25 18:00:00 23.3 15 Oeste 31 Sudoeste 0 -- -- 60
2018-06-25 17:00:00 23.5 17 Sudoeste 28 Oeste 0 -- -- 53
2018-06-25 16:00:00 22.3 15 Sudoeste 26 Sudoeste 0 -- -- 54
2018-06-25 15:00:00 23.7 10 Sudoeste 26 Sudoeste 0 -- -- 51
2018-06-25 14:00:00 22.6 12 Sudoeste 23 Oeste 0 -- -- 56
2018-06-25 13:00:00 21.6 12 Oeste 24 Oeste 0 -- -- 60
2018-06-25 12:00:00 20.7 11 Oeste 21 Oeste 0 -- -- 66
2018-06-25 11:00:00 20.6 10 Oeste 18 Sudoeste 0 -- -- 68
2018-06-25 10:00:00 19.7 8 Sudoeste 14 Oeste 0 -- -- 77
2018-06-25 09:00:00 18.8 8 Sudoeste 13 Sudoeste 0 -- -- 83
2018-06-25 08:00:00 18.7 6 Sudoeste 11 Sudoeste 0 -- -- 85
2018-06-25 07:00:00 18.3 5 Sudoeste 9 Sudoeste 0 -- -- 87
2018-06-25 06:00:00 18.3 5 Oeste 12 Sudoeste 0 -- -- 90
2018-06-25 05:00:00 18.2 6 Sudoeste 14 Sudoeste 0 -- -- 91
2018-06-25 04:00:00 18.1 9 Sudoeste 17 Sudoeste 0 -- -- 91
2018-06-25 03:00:00 18.5 9 Sudoeste 15 Sudoeste 0 -- -- 90
2018-06-25 02:00:00 18.4 9 Sudoeste 15 Sudoeste 0 -- -- 91
2018-06-25 01:00:00 18.5 9 Sudoeste 14 Sudoeste 0 -- -- 90
2018-06-25 00:00:00 18.8 9 Sudoeste 19 Sudoeste 0 -- -- 88
2018-06-24 23:00:00 19.2 13 Oeste 26 Oeste 0 -- -- 85
2018-06-24 22:00:00 19.1 16 Oeste 29 Oeste 0 -- -- 85
2018-06-24 21:00:00 19.4 18 Oeste 30 Oeste 0 -- -- 84
2018-06-24 20:00:00 20.6 18 Oeste 32 Sudoeste 0 -- -- 79
2018-06-24 19:00:00 21.6 21 Oeste 33 Oeste 0 -- -- 72
2018-06-24 18:00:00 23.3 17 Sudoeste 30 Sudoeste 0 -- -- 65
2018-06-24 17:00:00 23.8 13 Sudoeste 33 Sudeste 0 -- -- 58
2018-06-24 16:00:00 26.5 18 Sudeste 47 Sudeste 0 -- -- 45
2018-06-24 15:00:00 26.7 21 Sudeste 41 Sudeste 0 -- -- 46
2018-06-24 14:00:00 26.8 16 Sudeste 38 Este 0 -- -- 46
2018-06-24 13:00:00 25.9 17 Sudeste 37 Sur 0 -- -- 49
2018-06-24 12:00:00 25.4 12 Sudeste 26 Este 0 -- -- 52
2018-06-24 11:00:00 24.4 7 Sudeste 14 Este 0 -- -- 60
2018-06-24 10:00:00 22.5 4 Sudeste 17 Este 0 -- -- 75
2018-06-24 09:00:00 19.6 5 Sur 12 Sudeste 0 -- -- 93
2018-06-24 08:00:00 18.6 5 Sudoeste 16 Sudeste 0 -- -- 95
2018-06-24 07:00:00 19.1 8 Sudeste 20 Sudeste 0 -- -- 93
2018-06-24 06:00:00 19 8 Sur 17 Sur 0 -- -- 92
2018-06-24 05:00:00 19.2 5 Sur 8 Sur 0 -- -- 86
2018-06-24 04:00:00 20.2 4 Este 12 Sudeste 0 -- -- 72
2018-06-24 03:00:00 20.8 7 Sudeste 23 Este 0 -- -- 67
2018-06-24 02:00:00 21.2 13 Este 29 Este 0 -- -- 64
2018-06-24 01:00:00 21.7 12 Sudeste 24 Este 0 -- -- 60
2018-06-24 00:00:00 22 12 Este 29 Este 0 -- -- 56
2018-06-23 23:00:00 22.8 12 Este 30 Este 0 -- -- 50
2018-06-23 22:00:00 22.9 12 Este 28 Este 0 -- -- 49
2018-06-23 21:00:00 24.4 11 Este 31 Este 0 -- -- 43
2018-06-23 20:00:00 25.7 14 Este 33 Este 0 -- -- 38
2018-06-23 19:00:00 27.5 12 Este 31 Nordeste 0 -- -- 34
2018-06-23 18:00:00 28.3 14 Este 33 Este 0 -- -- 32
2018-06-23 17:00:00 28.4 17 Este 42 Este 0 -- -- 32
2018-06-23 16:00:00 29.1 17 Este 40 Este 0 -- -- 32
2018-06-23 15:00:00 28.9 17 Este 39 Este 0 -- -- 33
2018-06-23 14:00:00 28.7 15 Este 35 Este 0 -- -- 34
2018-06-23 13:00:00 28.1 15 Este 38 Este 0 -- -- 34
2018-06-23 12:00:00 27.2 13 Este 30 Este 0 -- -- 39
2018-06-23 11:00:00 25.5 13 Este 29 Este 0 -- -- 43
2018-06-23 10:00:00 22.5 7 Nordeste 16 Nordeste 0 -- -- 53
2018-06-23 09:00:00 20.6 5 Nordeste 10 Nordeste 0 -- -- 61
2018-06-23 08:00:00 18.6 0 Calma 6 Norte 0 -- -- 74
2018-06-23 07:00:00 18.3 2 Sudeste 6 Sudeste 0 -- -- 89
2018-06-23 06:00:00 18.3 3 Sudeste 12 Sur 0 -- -- 89
2018-06-23 05:00:00 18.4 8 Sur 14 Sudeste 0 -- -- 89
2018-06-23 04:00:00 18.3 6 Sudoeste 10 Oeste 0 -- -- 89
2018-06-23 03:00:00 19.3 7 Oeste 13 Oeste 0 -- -- 86
2018-06-23 02:00:00 19.6 0 Calma 10 Este 0 -- -- 78
2018-06-23 01:00:00 20.5 5 Este 13 Este 0 -- -- 55
2018-06-23 00:00:00 20.2 5 Sudeste 12 Este 0 -- -- 61
2018-06-22 23:00:00 21 4 Sudeste 9 Sudeste 0 -- -- 65
2018-06-22 22:00:00 21.1 3 Oeste 8 Oeste 0 -- -- 71
2018-06-22 21:00:00 23 5 Oeste 11 Oeste 0 -- -- 57
2018-06-22 20:00:00 24.7 8 Oeste 16 Sudoeste 0 -- -- 52
2018-06-22 19:00:00 25.7 8 Oeste 19 Oeste 0 -- -- 49
2018-06-22 18:00:00 26.9 10 Oeste 19 Sudoeste 0 -- -- 47
2018-06-22 17:00:00 26 11 Oeste 23 Oeste 0 -- -- 48
2018-06-22 16:00:00 26.2 11 Sudoeste 22 Oeste 0 -- -- 45
2018-06-22 15:00:00 29.2 10 Este 24 Este 0 -- -- 29
2018-06-22 14:00:00 28.6 8 Este 22 Este 0 -- -- 33
2018-06-22 13:00:00 27.7 7 Este 18 Este 0 -- -- 34
2018-06-22 12:00:00 25.9 4 Nordeste 10 Este 0 -- -- 38
2018-06-22 11:00:00 24.1 3 Nordeste 10 Noroeste 0 -- -- 50
2018-06-22 10:00:00 21.2 3 Oeste 10 Sudeste 0 -- -- 73
2018-06-22 09:00:00 18.9 0 Calma 6 Este 0 -- -- 93
2018-06-22 08:00:00 18.6 3 Sudeste 7 Sur 0 -- -- 92
2018-06-22 07:00:00 18.2 5 Sudoeste 8 Sudoeste 0 -- -- 95
2018-06-22 06:00:00 18.2 3 Sudeste 6 Sudeste 0 -- -- 95
2018-06-22 05:00:00 18.2 5 Sur 9 Sur 0 -- -- 95
2018-06-22 04:00:00 18.5 5 Sudeste 14 Sur 0 -- -- 92
2018-06-22 03:00:00 18.3 8 Sur 16 Sudeste 0 -- -- 92
2018-06-22 02:00:00 19 7 Sudeste 24 Sudeste 0 -- -- 87
2018-06-22 01:00:00 19.6 7 Sudeste 22 Este 0 -- -- 72
2018-06-22 00:00:00 20.7 12 Este 22 Este 0 -- -- 60
2018-06-21 23:00:00 20.6 10 Este 21 Este 0 -- -- 58
2018-06-21 22:00:00 21.5 11 Este 28 Este 0 -- -- 51
2018-06-21 21:00:00 23 13 Este 35 Este 0 -- -- 44
2018-06-21 20:00:00 24.7 14 Este 36 Este 0 -- -- 39
2018-06-21 19:00:00 25.9 18 Este 39 Este 0 -- -- 37
2018-06-21 18:00:00 27.4 17 Este 43 Este 0 -- -- 34
2018-06-21 17:00:00 27.8 17 Este 35 Este 0 -- -- 34
2018-06-21 16:00:00 27.6 15 Este 38 Este 0 -- -- 38
2018-06-21 15:00:00 27.3 14 Sudeste 31 Este 0 -- -- 40
2018-06-21 14:00:00 27 14 Este 41 Este 0 -- -- 38
2018-06-21 13:00:00 25.3 13 Este 34 Este 0 -- -- 44
2018-06-21 12:00:00 25.7 4 Nordeste 18 Nordeste 0 -- -- 45
2018-06-21 11:00:00 22.7 4 Noroeste 10 Oeste 0 -- -- 60
2018-06-21 10:00:00 20.1 4 Sudoeste 22 Este 0 -- -- 77
2018-06-21 09:00:00 18.7 6 Oeste 16 Este 0.1 -- -- 82
2018-06-21 08:00:00 19.4 8 Este 18 Sudoeste 0 -- -- 65
2018-06-21 07:00:00 18.3 6 Sur 24 Este 0 -- -- 78
2018-06-21 06:00:00 17.5 9 Este 34 Este 0.4 -- -- 88
2018-06-21 05:00:00 17.9 18 Este 44 Este 1.6 -- -- 88
2018-06-21 04:00:00 18.5 8 Este 21 Sudeste 0.3 -- -- 91
2018-06-21 03:00:00 19.2 7 Sudoeste 19 Sur 0 -- -- 80
2018-06-21 02:00:00 19.7 9 Este 26 Este 0 -- -- 78
2018-06-21 01:00:00 19 13 Este 33 Este 0.1 -- -- 85
2018-06-21 00:00:00 19.8 15 Este 39 Este 0 -- -- 76
2018-06-20 23:00:00 20.2 14 Este 38 Este 0 -- -- 72
2018-06-20 22:00:00 21 19 Este 41 Este 0 -- -- 66
2018-06-20 21:00:00 22 17 Este 39 Este 0 -- -- 64
2018-06-20 20:00:00 23.2 20 Este 41 Este 0 -- -- 55
2018-06-20 19:00:00 24.9 17 Este 37 Este 0 -- -- 49
2018-06-20 18:00:00 26.1 15 Este 44 Este 0 -- -- 48
2018-06-20 17:00:00 25.8 20 Este 44 Este 0 -- -- 46
2018-06-20 16:00:00 26.7 18 Este 44 Este 0 -- -- 45
2018-06-20 15:00:00 24.3 16 Este 42 Este 0 -- -- 49
2018-06-20 14:00:00 25.9 21 Este 45 Este 0 -- -- 46
2018-06-20 13:00:00 25.7 14 Este 42 Este 0 -- -- 46
2018-06-20 12:00:00 25.3 18 Este 37 Este 0 -- -- 49
2018-06-20 11:00:00 22.6 9 Este 41 Este 0 -- -- 60
2018-06-20 10:00:00 22.3 20 Este 46 Este 0 -- -- 63
2018-06-20 09:00:00 19.6 20 Este 48 Este 0 -- -- 80
2018-06-20 08:00:00 19.2 24 Este 46 Este 0 -- -- 80
2018-06-20 07:00:00 19.2 12 Sudeste 37 Este 0 -- -- 76
2018-06-20 06:00:00 18.7 10 Este 35 Este 0 -- -- 77
2018-06-20 05:00:00 19.2 19 Este 47 Sudeste 0 -- -- 74
2018-06-20 04:00:00 19.5 24 Este 48 Este 0 -- -- 72
2018-06-20 03:00:00 19.7 23 Este 44 Este 0 -- -- 69
2018-06-20 02:00:00 19.6 17 Este 37 Este 0 -- -- 72
2018-06-20 01:00:00 19.8 14 Este 37 Este 0 -- -- 66
2018-06-20 00:00:00 20.2 21 Este 44 Este 0 -- -- 61
2018-06-19 23:00:00 20.4 23 Este 51 Este 0 -- -- 61
2018-06-19 22:00:00 20.6 25 Este 54 Este 0 -- -- 57
2018-06-19 21:00:00 22 25 Este 51 Este 0 -- -- 49
2018-06-19 20:00:00 23.8 22 Este 53 Este 0 -- -- 45
2018-06-19 19:00:00 25.1 19 Este 53 Este 0 -- -- 42
2018-06-19 18:00:00 25.5 21 Este 54 Este 0 -- -- 41
2018-06-19 17:00:00 26.3 26 Este 54 Este 0 -- -- 41
2018-06-19 16:00:00 27.2 20 Este 58 Este 0 -- -- 41
2018-06-19 15:00:00 26.1 23 Este 60 Este 0 -- -- 41
2018-06-19 14:00:00 26.2 21 Este 48 Este 0 -- -- 42
2018-06-19 13:00:00 25.9 20 Este 45 Este 0 -- -- 43
2018-06-19 12:00:00 26.1 20 Este 41 Este 0 -- -- 45
2018-06-19 11:00:00 24.4 18 Este 44 Este 0 -- -- 52
2018-06-19 10:00:00 22.9 22 Este 47 Este 0 -- -- 58
2018-06-19 09:00:00 21.1 18 Este 37 Este 0 -- -- 66
2018-06-19 08:00:00 20 16 Este 31 Este 0 -- -- 64
2018-06-19 07:00:00 19.8 14 Este 28 Este 0 -- -- 62
2018-06-19 06:00:00 20.2 14 Este 31 Este 0 -- -- 61
2018-06-19 05:00:00 20.1 13 Este 29 Este 0 -- -- 61
2018-06-19 04:00:00 19.8 10 Este 20 Este 0 -- -- 61
2018-06-19 03:00:00 19.9 8 Este 22 Este 0 -- -- 61
2018-06-19 02:00:00 19.7 10 Este 21 Este 0 -- -- 68
2018-06-19 01:00:00 20.3 10 Este 22 Este 0 -- -- 61
2018-06-19 00:00:00 20.3 8 Sudeste 17 Este 0 -- -- 57
2018-06-18 23:00:00 21.3 6 Este 15 Este 0 -- -- 50
2018-06-18 22:00:00 22.5 10 Este 22 Sudeste 0 -- -- 42
2018-06-18 21:00:00 24.4 12 Sudeste 29 Sudeste 0 -- -- 38
2018-06-18 20:00:00 24.9 14 Sudeste 33 Este 0 -- -- 42
2018-06-18 19:00:00 26.8 13 Este 40 Sudeste 0 -- -- 39
2018-06-18 18:00:00 28.7 14 Este 38 Este 0 -- -- 33
2018-06-18 17:00:00 28.5 18 Este 41 Este 0 -- -- 34
2018-06-18 16:00:00 28.6 18 Este 47 Este 0 -- -- 35
2018-06-18 15:00:00 28.1 12 Sudeste 43 Este 0 -- -- 43
2018-06-18 14:00:00 27.6 21 Este 49 Este 0 -- -- 36
2018-06-18 13:00:00 27 19 Este 58 Este 0 -- -- 37
2018-06-18 12:00:00 26.1 25 Este 53 Este 0 -- -- 39
2018-06-18 11:00:00 25.2 17 Este 48 Este 0 -- -- 39
2018-06-18 10:00:00 24.1 21 Este 48 Este 0 -- -- 38
2018-06-18 09:00:00 23.2 19 Este 43 Este 0 -- -- 38
2018-06-18 08:00:00 22.2 18 Este 42 Sudeste 0 -- -- 42
2018-06-18 07:00:00 21.5 16 Este 41 Este 0 -- -- 44
2018-06-18 06:00:00 20.8 13 Este 32 Este 0 -- -- 50
2018-06-18 05:00:00 20.4 13 Este 39 Este 0 -- -- 55
2018-06-18 04:00:00 20.6 15 Este 42 Este 0 -- -- 57
2018-06-18 03:00:00 20.5 17 Este 35 Nordeste 0 -- -- 62
2018-06-18 02:00:00 20.8 13 Este 26 Este 0 -- -- 52
2018-06-18 01:00:00 21.5 11 Este 33 Este 0 -- -- 47
2018-06-18 00:00:00 22.1 17 Este 43 Este 0 -- -- 44
2018-06-17 23:00:00 22.3 14 Este 34 Este 0 -- -- 44
2018-06-17 22:00:00 22.8 17 Este 37 Este 0 -- -- 40
2018-06-17 21:00:00 24.2 17 Este 42 Este 0 -- -- 32
2018-06-17 20:00:00 25.9 15 Este 39 Este 0 -- -- 27
2018-06-17 19:00:00 26.9 17 Este 33 Este 0 -- -- 26
2018-06-17 18:00:00 28 19 Este 40 Este 0 -- -- 25
2018-06-17 17:00:00 30.4 16 Este 37 Este 0 -- -- 25
2018-06-17 16:00:00 28.9 15 Este 37 Nordeste 0 -- -- 24
2018-06-17 15:00:00 29.4 16 Este 44 Este 0 -- -- 24
2018-06-17 14:00:00 28.9 17 Este 45 Este 0 -- -- 25
2018-06-17 13:00:00 28.4 18 Este 42 Este 0 -- -- 25
2018-06-17 12:00:00 26.9 17 Este 37 Este 0 -- -- 26
2018-06-17 11:00:00 25.6 15 Este 40 Este 0 -- -- 29
2018-06-17 10:00:00 23.9 15 Este 30 Este 0 -- -- 34
2018-06-17 09:00:00 20 9 Este 23 Este 0 -- -- 55
2018-06-17 08:00:00 18.8 7 Este 17 Este 0 -- -- 57
2018-06-17 07:00:00 18.2 6 Este 15 Este 0 -- -- 62
2018-06-17 06:00:00 17.6 5 Sudeste 11 Sur 0 -- -- 69
2018-06-17 05:00:00 18.1 6 Sur 13 Sur 0 -- -- 65
2018-06-17 04:00:00 19.8 5 Este 13 Este 0 -- -- 35
2018-06-17 03:00:00 20.8 6 Este 12 Este 0 -- -- 34
2018-06-17 02:00:00 21.1 6 Este 17 Este 0 -- -- 34
2018-06-17 01:00:00 21.6 8 Este 19 Este 0 -- -- 34
2018-06-17 00:00:00 22 6 Este 14 Nordeste 0 -- -- 34